sensor_id;sensor_type;location;lat;lon;timestamp;pressure;altitude;pressure_sealevel;temperature;humidity
50310;BME280;36207;51.850;21.698;2022-08-19T00:01:33;99619.59;;;20.99;67.40
50310;BME280;36207;51.850;21.698;2022-08-19T00:04:03;99621.36;;;20.97;67.41
50310;BME280;36207;51.850;21.698;2022-08-19T00:06:30;99623.08;;;20.94;67.57
50310;BME280;36207;51.850;21.698;2022-08-19T00:08:57;99624.90;;;20.92;67.60
50310;BME280;36207;51.850;21.698;2022-08-19T00:11:26;99624.50;;;20.91;67.54
50310;BME280;36207;51.850;21.698;2022-08-19T00:13:54;99621.52;;;20.91;67.58
50310;BME280;36207;51.850;21.698;2022-08-19T00:16:21;99621.33;;;20.93;67.70
50310;BME280;36207;51.850;21.698;2022-08-19T00:18:47;99625.30;;;20.94;67.85
50310;BME280;36207;51.850;21.698;2022-08-19T00:21:15;99626.70;;;20.93;67.92
50310;BME280;36207;51.850;21.698;2022-08-19T00:23:42;99626.70;;;20.93;68.08
50310;BME280;36207;51.850;21.698;2022-08-19T00:26:10;99625.53;;;20.95;68.15
50310;BME280;36207;51.850;21.698;2022-08-19T00:28:37;99623.90;;;20.97;68.18
50310;BME280;36207;51.850;21.698;2022-08-19T00:31:05;99617.68;;;20.99;68.38
50310;BME280;36207;51.850;21.698;2022-08-19T00:33:32;99621.23;;;21.01;68.30
50310;BME280;36207;51.850;21.698;2022-08-19T00:36:00;99619.18;;;21.01;68.26
50310;BME280;36207;51.850;21.698;2022-08-19T00:38:27;99621.62;;;21.02;68.47
50310;BME280;36207;51.850;21.698;2022-08-19T00:40:54;99620.98;;;21.05;68.49
50310;BME280;36207;51.850;21.698;2022-08-19T00:43:23;99619.20;;;21.05;68.49
50310;BME280;36207;51.850;21.698;2022-08-19T00:45:50;99617.46;;;21.05;68.37
50310;BME280;36207;51.850;21.698;2022-08-19T00:48:18;99617.59;;;21.04;68.45
50310;BME280;36207;51.850;21.698;2022-08-19T00:50:45;99624.52;;;21.05;68.45
50310;BME280;36207;51.850;21.698;2022-08-19T00:53:15;99627.94;;;21.06;68.49
50310;BME280;36207;51.850;21.698;2022-08-19T00:55:46;99624.88;;;21.07;68.62
50310;BME280;36207;51.850;21.698;2022-08-19T00:58:16;99624.48;;;21.07;68.70
50310;BME280;36207;51.850;21.698;2022-08-19T01:00:44;99627.17;;;21.04;68.56
50310;BME280;36207;51.850;21.698;2022-08-19T01:03:13;99627.09;;;21.00;68.59
50310;BME280;36207;51.850;21.698;2022-08-19T01:05:42;99625.49;;;20.98;68.62
50310;BME280;36207;51.850;21.698;2022-08-19T01:08:10;99626.84;;;20.97;68.72
50310;BME280;36207;51.850;21.698;2022-08-19T01:10:50;99628.44;;;20.95;68.82
50310;BME280;36207;51.850;21.698;2022-08-19T01:13:21;99629.58;;;20.94;68.79
50310;BME280;36207;51.850;21.698;2022-08-19T01:16:00;99632.33;;;20.91;68.98
50310;BME280;36207;51.850;21.698;2022-08-19T01:18:28;99632.17;;;20.89;68.97
50310;BME280;36207;51.850;21.698;2022-08-19T01:21:08;99633.33;;;20.88;68.89
50310;BME280;36207;51.850;21.698;2022-08-19T01:23:35;99636.80;;;20.87;68.90
50310;BME280;36207;51.850;21.698;2022-08-19T01:26:17;99640.77;;;20.87;68.99
50310;BME280;36207;51.850;21.698;2022-08-19T01:28:46;99633.48;;;20.87;69.15
50310;BME280;36207;51.850;21.698;2022-08-19T01:31:16;99629.83;;;20.86;69.21
50310;BME280;36207;51.850;21.698;2022-08-19T01:33:44;99629.31;;;20.84;69.16
50310;BME280;36207;51.850;21.698;2022-08-19T01:36:32;99632.13;;;20.82;69.15
50310;BME280;36207;51.850;21.698;2022-08-19T01:39:01;99633.19;;;20.81;69.22
50310;BME280;36207;51.850;21.698;2022-08-19T01:41:28;99637.95;;;20.79;69.22
50310;BME280;36207;51.850;21.698;2022-08-19T01:43:54;99637.45;;;20.78;69.33
50310;BME280;36207;51.850;21.698;2022-08-19T01:46:22;99634.16;;;20.75;69.33
50310;BME280;36207;51.850;21.698;2022-08-19T01:48:48;99632.01;;;20.70;69.38
50310;BME280;36207;51.850;21.698;2022-08-19T01:51:15;99630.77;;;20.68;69.20
50310;BME280;36207;51.850;21.698;2022-08-19T01:53:42;99633.07;;;20.65;69.06
50310;BME280;36207;51.850;21.698;2022-08-19T01:56:08;99632.30;;;20.62;69.24
50310;BME280;36207;51.850;21.698;2022-08-19T01:58:44;99628.70;;;20.61;69.35
50310;BME280;36207;51.850;21.698;2022-08-19T02:01:13;99628.11;;;20.57;69.09
50310;BME280;36207;51.850;21.698;2022-08-19T02:03:40;99624.77;;;20.52;69.13
50310;BME280;36207;51.850;21.698;2022-08-19T02:06:06;99618.48;;;20.47;69.02
50310;BME280;36207;51.850;21.698;2022-08-19T02:08:35;99622.02;;;20.44;69.32
50310;BME280;36207;51.850;21.698;2022-08-19T02:11:03;99621.46;;;20.42;69.22
50310;BME280;36207;51.850;21.698;2022-08-19T02:13:29;99625.45;;;20.40;69.29
50310;BME280;36207;51.850;21.698;2022-08-19T02:15:56;99624.59;;;20.37;69.31
50310;BME280;36207;51.850;21.698;2022-08-19T02:18:22;99623.66;;;20.31;69.31
50310;BME280;36207;51.850;21.698;2022-08-19T02:20:49;99622.48;;;20.28;69.55
50310;BME280;36207;51.850;21.698;2022-08-19T02:23:16;99620.35;;;20.27;69.36
50310;BME280;36207;51.850;21.698;2022-08-19T02:25:45;99621.58;;;20.25;69.30
50310;BME280;36207;51.850;21.698;2022-08-19T02:28:13;99620.16;;;20.25;69.48
50310;BME280;36207;51.850;21.698;2022-08-19T02:30:41;99620.70;;;20.25;69.58
50310;BME280;36207;51.850;21.698;2022-08-19T02:33:07;99615.87;;;20.24;69.54
50310;BME280;36207;51.850;21.698;2022-08-19T02:35:33;99616.52;;;20.23;69.58
50310;BME280;36207;51.850;21.698;2022-08-19T02:38:00;99612.80;;;20.21;69.75
50310;BME280;36207;51.850;21.698;2022-08-19T02:40:50;99606.24;;;20.22;69.82
50310;BME280;36207;51.850;21.698;2022-08-19T02:43:20;99600.19;;;20.23;69.99
50310;BME280;36207;51.850;21.698;2022-08-19T02:45:48;99601.25;;;20.26;69.97
50310;BME280;36207;51.850;21.698;2022-08-19T02:48:19;99600.55;;;20.26;70.05
50310;BME280;36207;51.850;21.698;2022-08-19T02:50:48;99602.52;;;20.24;70.13
50310;BME280;36207;51.850;21.698;2022-08-19T02:53:19;99606.27;;;20.24;70.09
50310;BME280;36207;51.850;21.698;2022-08-19T02:55:46;99611.54;;;20.24;70.00
50310;BME280;36207;51.850;21.698;2022-08-19T02:58:14;99616.03;;;20.23;69.93
50310;BME280;36207;51.850;21.698;2022-08-19T03:00:43;99618.42;;;20.20;70.00
50310;BME280;36207;51.850;21.698;2022-08-19T03:03:10;99617.45;;;20.16;69.97
50310;BME280;36207;51.850;21.698;2022-08-19T03:05:36;99614.60;;;20.14;70.16
50310;BME280;36207;51.850;21.698;2022-08-19T03:08:03;99610.92;;;20.14;70.18
50310;BME280;36207;51.850;21.698;2022-08-19T03:10:30;99610.70;;;20.14;70.02
50310;BME280;36207;51.850;21.698;2022-08-19T03:12:56;99616.55;;;20.14;70.05
50310;BME280;36207;51.850;21.698;2022-08-19T03:15:22;99616.21;;;20.12;70.12
50310;BME280;36207;51.850;21.698;2022-08-19T03:17:48;99618.64;;;20.11;70.21
50310;BME280;36207;51.850;21.698;2022-08-19T03:20:15;99618.02;;;20.09;70.24
50310;BME280;36207;51.850;21.698;2022-08-19T03:22:41;99618.16;;;20.08;70.33
50310;BME280;36207;51.850;21.698;2022-08-19T03:25:07;99616.11;;;20.09;70.42
50310;BME280;36207;51.850;21.698;2022-08-19T03:27:34;99615.48;;;20.09;70.46
50310;BME280;36207;51.850;21.698;2022-08-19T03:30:01;99610.46;;;20.08;70.45
50310;BME280;36207;51.850;21.698;2022-08-19T03:32:28;99612.94;;;20.06;70.40
50310;BME280;36207;51.850;21.698;2022-08-19T03:34:54;99619.83;;;20.02;70.43
50310;BME280;36207;51.850;21.698;2022-08-19T03:37:20;99618.16;;;19.99;70.36
50310;BME280;36207;51.850;21.698;2022-08-19T03:39:48;99619.01;;;19.98;70.22
50310;BME280;36207;51.850;21.698;2022-08-19T03:42:14;99620.13;;;19.97;70.52
50310;BME280;36207;51.850;21.698;2022-08-19T03:44:43;99625.13;;;19.98;70.57
50310;BME280;36207;51.850;21.698;2022-08-19T03:47:10;99624.27;;;19.99;70.82
50310;BME280;36207;51.850;21.698;2022-08-19T03:49:42;99624.29;;;20.00;70.70
50310;BME280;36207;51.850;21.698;2022-08-19T03:52:08;99619.52;;;20.00;70.75
50310;BME280;36207;51.850;21.698;2022-08-19T03:54:35;99615.85;;;20.01;70.76
50310;BME280;36207;51.850;21.698;2022-08-19T03:57:02;99616.04;;;20.03;70.80
50310;BME280;36207;51.850;21.698;2022-08-19T03:59:32;99614.37;;;20.04;70.81
50310;BME280;36207;51.850;21.698;2022-08-19T04:02:02;99615.24;;;20.04;70.63
50310;BME280;36207;51.850;21.698;2022-08-19T04:04:29;99618.48;;;20.03;70.75
50310;BME280;36207;51.850;21.698;2022-08-19T04:06:56;99615.17;;;20.03;70.85
50310;BME280;36207;51.850;21.698;2022-08-19T04:09:22;99615.05;;;20.06;70.98
50310;BME280;36207;51.850;21.698;2022-08-19T04:11:51;99617.29;;;20.12;71.09
50310;BME280;36207;51.850;21.698;2022-08-19T04:14:22;99612.91;;;20.16;71.17
50310;BME280;36207;51.850;21.698;2022-08-19T04:16:51;99614.96;;;20.20;71.17
50310;BME280;36207;51.850;21.698;2022-08-19T04:19:19;99620.33;;;20.25;71.34
50310;BME280;36207;51.850;21.698;2022-08-19T04:21:47;99619.17;;;20.33;71.35
50310;BME280;36207;51.850;21.698;2022-08-19T04:24:14;99618.73;;;20.40;71.59
50310;BME280;36207;51.850;21.698;2022-08-19T04:26:41;99620.16;;;20.47;71.63
50310;BME280;36207;51.850;21.698;2022-08-19T04:29:11;99617.14;;;20.52;71.62
50310;BME280;36207;51.850;21.698;2022-08-19T04:31:39;99614.73;;;20.58;71.68
50310;BME280;36207;51.850;21.698;2022-08-19T04:34:09;99616.42;;;20.65;71.80
50310;BME280;36207;51.850;21.698;2022-08-19T04:36:41;99615.52;;;20.73;71.76
50310;BME280;36207;51.850;21.698;2022-08-19T04:39:12;99615.61;;;20.80;71.76
50310;BME280;36207;51.850;21.698;2022-08-19T04:41:38;99617.89;;;20.87;71.88
50310;BME280;36207;51.850;21.698;2022-08-19T04:44:24;99615.83;;;20.98;71.90
50310;BME280;36207;51.850;21.698;2022-08-19T04:46:51;99618.88;;;21.10;71.97
50310;BME280;36207;51.850;21.698;2022-08-19T04:49:20;99619.19;;;21.22;72.04
50310;BME280;36207;51.850;21.698;2022-08-19T04:51:52;99617.17;;;21.33;71.87
50310;BME280;36207;51.850;21.698;2022-08-19T04:54:22;99615.92;;;21.45;71.85
50310;BME280;36207;51.850;21.698;2022-08-19T04:56:49;99616.51;;;21.57;71.89
50310;BME280;36207;51.850;21.698;2022-08-19T04:59:18;99618.48;;;21.69;71.94
50310;BME280;36207;51.850;21.698;2022-08-19T05:01:46;99622.10;;;21.81;71.84
50310;BME280;36207;51.850;21.698;2022-08-19T05:04:18;99623.61;;;21.91;71.71
50310;BME280;36207;51.850;21.698;2022-08-19T05:06:46;99623.79;;;22.02;71.78
50310;BME280;36207;51.850;21.698;2022-08-19T05:09:14;99624.06;;;22.14;71.73
50310;BME280;36207;51.850;21.698;2022-08-19T05:11:41;99627.84;;;22.26;71.80
50310;BME280;36207;51.850;21.698;2022-08-19T05:14:10;99629.79;;;22.35;71.81
50310;BME280;36207;51.850;21.698;2022-08-19T05:16:39;99629.02;;;22.44;71.73
50310;BME280;36207;51.850;21.698;2022-08-19T05:19:05;99632.02;;;22.54;71.68
50310;BME280;36207;51.850;21.698;2022-08-19T05:21:51;99629.16;;;22.66;71.75
50310;BME280;36207;51.850;21.698;2022-08-19T05:24:36;99630.39;;;22.77;71.76
50310;BME280;36207;51.850;21.698;2022-08-19T05:27:03;99625.89;;;22.86;71.63
50310;BME280;36207;51.850;21.698;2022-08-19T05:29:32;99626.25;;;22.94;71.64
50310;BME280;36207;51.850;21.698;2022-08-19T05:32:02;99628.30;;;23.01;71.46
50310;BME280;36207;51.850;21.698;2022-08-19T05:34:31;99628.80;;;23.10;71.26
50310;BME280;36207;51.850;21.698;2022-08-19T05:37:00;99629.66;;;23.18;71.19
50310;BME280;36207;51.850;21.698;2022-08-19T05:39:31;99628.48;;;23.25;71.12
50310;BME280;36207;51.850;21.698;2022-08-19T05:42:04;99630.91;;;23.33;71.18
50310;BME280;36207;51.850;21.698;2022-08-19T05:44:36;99636.27;;;23.42;70.89
50310;BME280;36207;51.850;21.698;2022-08-19T05:47:05;99641.70;;;23.54;71.00
50310;BME280;36207;51.850;21.698;2022-08-19T05:49:33;99647.75;;;23.60;70.84
50310;BME280;36207;51.850;21.698;2022-08-19T05:52:05;99651.23;;;23.68;70.79
50310;BME280;36207;51.850;21.698;2022-08-19T05:54:33;99661.44;;;23.73;70.57
50310;BME280;36207;51.850;21.698;2022-08-19T05:57:00;99665.48;;;23.78;70.54
50310;BME280;36207;51.850;21.698;2022-08-19T05:59:28;99665.84;;;23.87;70.62
50310;BME280;36207;51.850;21.698;2022-08-19T06:01:55;99661.84;;;23.95;70.58
50310;BME280;36207;51.850;21.698;2022-08-19T06:04:23;99660.34;;;24.04;70.38
50310;BME280;36207;51.850;21.698;2022-08-19T06:06:51;99660.88;;;24.12;70.12
50310;BME280;36207;51.850;21.698;2022-08-19T06:09:20;99657.90;;;24.20;70.12
50310;BME280;36207;51.850;21.698;2022-08-19T06:11:53;99655.04;;;24.30;70.09
50310;BME280;36207;51.850;21.698;2022-08-19T06:14:23;99653.04;;;24.42;70.14
50310;BME280;36207;51.850;21.698;2022-08-19T06:16:50;99654.87;;;24.52;69.81
50310;BME280;36207;51.850;21.698;2022-08-19T06:19:21;99653.90;;;24.60;69.73
50310;BME280;36207;51.850;21.698;2022-08-19T06:21:51;99644.30;;;24.68;69.64
50310;BME280;36207;51.850;21.698;2022-08-19T06:24:21;99638.15;;;24.81;69.46
50310;BME280;36207;51.850;21.698;2022-08-19T06:26:51;99633.05;;;24.95;69.70
50310;BME280;36207;51.850;21.698;2022-08-19T06:29:21;99633.67;;;25.06;68.78
50310;BME280;36207;51.850;21.698;2022-08-19T06:31:50;99635.46;;;25.10;68.71
50310;BME280;36207;51.850;21.698;2022-08-19T06:34:17;99640.84;;;25.13;68.70
50310;BME280;36207;51.850;21.698;2022-08-19T06:36:47;99645.33;;;25.13;68.26
50310;BME280;36207;51.850;21.698;2022-08-19T06:39:17;99651.19;;;25.11;67.79
50310;BME280;36207;51.850;21.698;2022-08-19T06:41:47;99648.90;;;25.08;67.47
50310;BME280;36207;51.850;21.698;2022-08-19T06:44:14;99642.27;;;25.10;68.01
50310;BME280;36207;51.850;21.698;2022-08-19T06:46:41;99643.55;;;25.19;68.32
50310;BME280;36207;51.850;21.698;2022-08-19T06:49:08;99645.04;;;25.32;68.76
50310;BME280;36207;51.850;21.698;2022-08-19T06:51:37;99651.94;;;25.45;68.51
50310;BME280;36207;51.850;21.698;2022-08-19T06:54:05;99654.63;;;25.56;68.57
50310;BME280;36207;51.850;21.698;2022-08-19T06:56:33;99650.75;;;25.66;68.39
50310;BME280;36207;51.850;21.698;2022-08-19T06:59:08;99653.52;;;25.78;68.49
50310;BME280;36207;51.850;21.698;2022-08-19T07:01:36;99654.48;;;25.95;68.32
50310;BME280;36207;51.850;21.698;2022-08-19T07:04:05;99658.52;;;26.12;67.80
50310;BME280;36207;51.850;21.698;2022-08-19T07:06:32;99657.48;;;26.26;67.91
50310;BME280;36207;51.850;21.698;2022-08-19T07:08:59;99659.54;;;26.42;67.89
50310;BME280;36207;51.850;21.698;2022-08-19T07:11:26;99663.90;;;26.54;67.84
50310;BME280;36207;51.850;21.698;2022-08-19T07:13:52;99664.80;;;26.65;66.70
50310;BME280;36207;51.850;21.698;2022-08-19T07:16:19;99664.43;;;26.67;65.45
50310;BME280;36207;51.850;21.698;2022-08-19T07:18:48;99662.05;;;26.69;66.60
50310;BME280;36207;51.850;21.698;2022-08-19T07:21:23;99660.05;;;26.76;66.59
50310;BME280;36207;51.850;21.698;2022-08-19T07:23:50;99662.48;;;26.80;65.14
50310;BME280;36207;51.850;21.698;2022-08-19T07:26:26;99662.90;;;26.79;65.02
50310;BME280;36207;51.850;21.698;2022-08-19T07:28:53;99660.13;;;26.83;65.73
50310;BME280;36207;51.850;21.698;2022-08-19T07:31:22;99661.84;;;26.89;65.09
50310;BME280;36207;51.850;21.698;2022-08-19T07:33:50;99660.58;;;26.93;64.83
50310;BME280;36207;51.850;21.698;2022-08-19T07:36:21;99663.52;;;26.99;65.24
50310;BME280;36207;51.850;21.698;2022-08-19T07:38:49;99663.41;;;27.09;65.61
50310;BME280;36207;51.850;21.698;2022-08-19T07:41:21;99667.02;;;27.19;65.37
50310;BME280;36207;51.850;21.698;2022-08-19T07:43:48;99665.48;;;27.26;64.73
50310;BME280;36207;51.850;21.698;2022-08-19T07:46:16;99667.66;;;27.30;65.00
50310;BME280;36207;51.850;21.698;2022-08-19T07:48:44;99669.05;;;27.35;64.24
50310;BME280;36207;51.850;21.698;2022-08-19T07:51:16;99674.27;;;27.41;64.85
50310;BME280;36207;51.850;21.698;2022-08-19T07:53:43;99674.88;;;27.49;63.91
50310;BME280;36207;51.850;21.698;2022-08-19T07:56:12;99676.73;;;27.49;62.91
50310;BME280;36207;51.850;21.698;2022-08-19T07:58:44;99679.10;;;27.49;62.72
50310;BME280;36207;51.850;21.698;2022-08-19T08:01:14;99681.20;;;27.50;62.39
50310;BME280;36207;51.850;21.698;2022-08-19T08:03:42;99676.09;;;27.54;62.87
50310;BME280;36207;51.850;21.698;2022-08-19T08:06:28;99675.07;;;27.66;63.57
50310;BME280;36207;51.850;21.698;2022-08-19T08:09:15;99670.73;;;27.79;63.83
50310;BME280;36207;51.850;21.698;2022-08-19T08:12:26;99668.37;;;27.87;62.38
50310;BME280;36207;51.850;21.698;2022-08-19T08:14:51;99669.93;;;27.94;61.80
50310;BME280;36207;51.850;21.698;2022-08-19T08:17:19;99669.14;;;28.01;60.66
50310;BME280;36207;51.850;21.698;2022-08-19T08:19:47;99663.90;;;28.05;59.27
50310;BME280;36207;51.850;21.698;2022-08-19T08:22:19;99661.27;;;28.10;60.53
50310;BME280;36207;51.850;21.698;2022-08-19T08:25:09;99662.94;;;28.20;60.41
50310;BME280;36207;51.850;21.698;2022-08-19T08:27:38;99660.81;;;28.31;60.61
50310;BME280;36207;51.850;21.698;2022-08-19T08:30:10;99662.21;;;28.38;59.37
50310;BME280;36207;51.850;21.698;2022-08-19T08:32:39;99664.45;;;28.41;58.57
50310;BME280;36207;51.850;21.698;2022-08-19T08:35:09;99661.70;;;28.42;57.67
50310;BME280;36207;51.850;21.698;2022-08-19T08:37:37;99657.16;;;28.40;57.27
50310;BME280;36207;51.850;21.698;2022-08-19T08:42:55;99648.40;;;28.52;58.24
50310;BME280;36207;51.850;21.698;2022-08-19T08:45:26;99654.59;;;28.60;58.37
50310;BME280;36207;51.850;21.698;2022-08-19T08:47:55;99650.79;;;28.68;57.42
50310;BME280;36207;51.850;21.698;2022-08-19T08:50:33;99651.02;;;28.75;57.34
50310;BME280;36207;51.850;21.698;2022-08-19T08:53:02;99649.47;;;28.80;56.44
50310;BME280;36207;51.850;21.698;2022-08-19T08:55:31;99651.27;;;28.84;56.12
50310;BME280;36207;51.850;21.698;2022-08-19T08:58:13;99649.38;;;28.89;57.00
50310;BME280;36207;51.850;21.698;2022-08-19T09:00:47;99648.57;;;28.98;56.48
50310;BME280;36207;51.850;21.698;2022-08-19T09:03:24;99645.64;;;29.04;56.59
50310;BME280;36207;51.850;21.698;2022-08-19T09:06:17;99646.89;;;29.14;57.18
50310;BME280;36207;51.850;21.698;2022-08-19T09:09:04;99652.41;;;29.22;55.92
50310;BME280;36207;51.850;21.698;2022-08-19T09:12:02;99656.89;;;29.24;54.35
50310;BME280;36207;51.850;21.698;2022-08-19T09:17:13;99661.39;;;29.29;52.83
50310;BME280;36207;51.850;21.698;2022-08-19T09:22:23;99662.33;;;29.37;53.46
50310;BME280;36207;51.850;21.698;2022-08-19T09:24:51;99661.75;;;29.43;54.08
50310;BME280;36207;51.850;21.698;2022-08-19T09:27:19;99659.78;;;29.49;53.27
50310;BME280;36207;51.850;21.698;2022-08-19T09:29:47;99652.96;;;29.56;53.65
50310;BME280;36207;51.850;21.698;2022-08-19T09:32:21;99658.48;;;29.62;52.85
50310;BME280;36207;51.850;21.698;2022-08-19T09:34:48;99658.34;;;29.68;53.04
50310;BME280;36207;51.850;21.698;2022-08-19T09:37:14;99663.67;;;29.74;52.45
50310;BME280;36207;51.850;21.698;2022-08-19T09:39:41;99663.70;;;29.79;52.85
50310;BME280;36207;51.850;21.698;2022-08-19T09:42:09;99666.69;;;29.86;51.61
50310;BME280;36207;51.850;21.698;2022-08-19T09:44:41;99664.45;;;29.89;51.67
50310;BME280;36207;51.850;21.698;2022-08-19T09:47:12;99668.46;;;29.97;53.02
50310;BME280;36207;51.850;21.698;2022-08-19T09:49:39;99674.27;;;30.06;51.95
50310;BME280;36207;51.850;21.698;2022-08-19T09:52:09;99679.41;;;30.14;52.31
50310;BME280;36207;51.850;21.698;2022-08-19T09:54:38;99690.67;;;30.18;50.56
50310;BME280;36207;51.850;21.698;2022-08-19T09:57:05;99689.01;;;30.17;49.14
50310;BME280;36207;51.850;21.698;2022-08-19T09:59:32;99688.75;;;30.21;51.02
50310;BME280;36207;51.850;21.698;2022-08-19T10:01:58;99686.56;;;30.27;50.10
50310;BME280;36207;51.850;21.698;2022-08-19T10:04:25;99686.22;;;30.32;50.11
50310;BME280;36207;51.850;21.698;2022-08-19T10:07:11;99683.86;;;30.37;48.37
50310;BME280;36207;51.850;21.698;2022-08-19T10:09:37;99681.15;;;30.37;48.40
50310;BME280;36207;51.850;21.698;2022-08-19T10:12:04;99678.60;;;30.42;48.30
50310;BME280;36207;51.850;21.698;2022-08-19T10:14:31;99677.66;;;30.45;48.21
50310;BME280;36207;51.850;21.698;2022-08-19T10:16:57;99680.27;;;30.48;46.91
50310;BME280;36207;51.850;21.698;2022-08-19T10:19:26;99676.39;;;30.51;47.27
50310;BME280;36207;51.850;21.698;2022-08-19T10:21:58;99676.70;;;30.60;48.50
50310;BME280;36207;51.850;21.698;2022-08-19T10:24:24;99674.66;;;30.63;46.91
50310;BME280;36207;51.850;21.698;2022-08-19T10:26:51;99675.77;;;30.63;46.07
50310;BME280;36207;51.850;21.698;2022-08-19T10:29:18;99669.48;;;30.65;47.29
50310;BME280;36207;51.850;21.698;2022-08-19T10:31:44;99667.35;;;30.70;46.74
50310;BME280;36207;51.850;21.698;2022-08-19T10:34:13;99665.70;;;30.75;47.16
50310;BME280;36207;51.850;21.698;2022-08-19T10:36:40;99668.45;;;30.79;46.83
50310;BME280;36207;51.850;21.698;2022-08-19T10:39:09;99662.75;;;30.81;46.45
50310;BME280;36207;51.850;21.698;2022-08-19T10:41:38;99656.05;;;30.79;46.17
50310;BME280;36207;51.850;21.698;2022-08-19T10:44:08;99655.45;;;30.83;45.89
50310;BME280;36207;51.850;21.698;2022-08-19T10:46:41;99657.63;;;30.86;44.90
50310;BME280;36207;51.850;21.698;2022-08-19T10:49:13;99656.83;;;30.87;44.80
50310;BME280;36207;51.850;21.698;2022-08-19T10:51:41;99655.63;;;30.90;46.13
50310;BME280;36207;51.850;21.698;2022-08-19T10:54:27;99649.45;;;30.98;46.13
50310;BME280;36207;51.850;21.698;2022-08-19T10:57:14;99646.45;;;31.01;45.40
50310;BME280;36207;51.850;21.698;2022-08-19T10:59:41;99646.94;;;31.05;46.28
50310;BME280;36207;51.850;21.698;2022-08-19T11:02:09;99636.76;;;31.09;46.62
50310;BME280;36207;51.850;21.698;2022-08-19T11:04:37;99639.24;;;31.16;45.83
50310;BME280;36207;51.850;21.698;2022-08-19T11:07:05;99637.94;;;31.19;45.39
50310;BME280;36207;51.850;21.698;2022-08-19T11:09:37;99638.73;;;31.17;44.05
50310;BME280;36207;51.850;21.698;2022-08-19T11:12:05;99637.85;;;31.19;44.55
50310;BME280;36207;51.850;21.698;2022-08-19T11:14:31;99634.51;;;31.25;45.11
50310;BME280;36207;51.850;21.698;2022-08-19T11:17:00;99632.96;;;31.29;44.39
50310;BME280;36207;51.850;21.698;2022-08-19T11:19:26;99633.58;;;31.31;44.09
50310;BME280;36207;51.850;21.698;2022-08-19T11:21:53;99631.14;;;31.31;44.33
50310;BME280;36207;51.850;21.698;2022-08-19T11:24:23;99629.07;;;31.32;43.33
50310;BME280;36207;51.850;21.698;2022-08-19T11:26:51;99630.02;;;31.32;43.49
50310;BME280;36207;51.850;21.698;2022-08-19T11:29:20;99627.83;;;31.31;43.13
50310;BME280;36207;51.850;21.698;2022-08-19T11:31:48;99627.19;;;31.29;42.17
50310;BME280;36207;51.850;21.698;2022-08-19T11:34:18;99626.15;;;31.27;42.18
50310;BME280;36207;51.850;21.698;2022-08-19T11:36:46;99627.99;;;31.28;42.20
50310;BME280;36207;51.850;21.698;2022-08-19T11:39:15;99624.75;;;31.31;43.00
50310;BME280;36207;51.850;21.698;2022-08-19T11:41:42;99623.87;;;31.32;42.56
50310;BME280;36207;51.850;21.698;2022-08-19T11:44:09;99625.27;;;31.33;42.86
50310;BME280;36207;51.850;21.698;2022-08-19T11:46:37;99625.52;;;31.38;43.92
50310;BME280;36207;51.850;21.698;2022-08-19T11:49:05;99624.73;;;31.44;44.04
50310;BME280;36207;51.850;21.698;2022-08-19T11:51:33;99623.38;;;31.51;44.29
50310;BME280;36207;51.850;21.698;2022-08-19T11:54:00;99630.27;;;31.55;43.49
50310;BME280;36207;51.850;21.698;2022-08-19T11:56:28;99629.01;;;31.57;42.65
50310;BME280;36207;51.850;21.698;2022-08-19T11:58:55;99619.11;;;31.58;43.37
50310;BME280;36207;51.850;21.698;2022-08-19T12:01:24;99612.96;;;31.58;42.00
50310;BME280;36207;51.850;21.698;2022-08-19T12:03:53;99601.98;;;31.56;42.05
50310;BME280;36207;51.850;21.698;2022-08-19T12:06:23;99602.48;;;31.57;41.75
50310;BME280;36207;51.850;21.698;2022-08-19T12:08:52;99602.23;;;31.58;41.53
50310;BME280;36207;51.850;21.698;2022-08-19T12:11:18;99600.82;;;31.58;41.74
50310;BME280;36207;51.850;21.698;2022-08-19T12:13:45;99597.78;;;31.57;42.28
50310;BME280;36207;51.850;21.698;2022-08-19T12:16:15;99597.16;;;31.59;40.55
50310;BME280;36207;51.850;21.698;2022-08-19T12:18:43;99592.27;;;31.61;41.92
50310;BME280;36207;51.850;21.698;2022-08-19T12:21:13;99590.61;;;31.65;41.52
50310;BME280;36207;51.850;21.698;2022-08-19T12:23:41;99588.98;;;31.69;42.41
50310;BME280;36207;51.850;21.698;2022-08-19T12:26:09;99587.98;;;31.72;41.37
50310;BME280;36207;51.850;21.698;2022-08-19T12:28:37;99591.32;;;31.74;41.47
50310;BME280;36207;51.850;21.698;2022-08-19T12:31:04;99591.45;;;31.75;41.07
50310;BME280;36207;51.850;21.698;2022-08-19T12:33:31;99585.94;;;31.74;41.14
50310;BME280;36207;51.850;21.698;2022-08-19T12:36:04;99579.02;;;31.73;41.09
50310;BME280;36207;51.850;21.698;2022-08-19T12:38:31;99582.20;;;31.75;41.37
50310;BME280;36207;51.850;21.698;2022-08-19T12:40:58;99587.44;;;31.79;41.50
50310;BME280;36207;51.850;21.698;2022-08-19T12:43:25;99579.35;;;31.85;41.96
50310;BME280;36207;51.850;21.698;2022-08-19T12:45:52;99577.80;;;31.89;41.43
50310;BME280;36207;51.850;21.698;2022-08-19T12:48:19;99569.27;;;31.90;41.23
50310;BME280;36207;51.850;21.698;2022-08-19T12:50:45;99568.49;;;31.89;41.21
50310;BME280;36207;51.850;21.698;2022-08-19T12:53:14;99569.91;;;31.87;40.56
50310;BME280;36207;51.850;21.698;2022-08-19T12:55:41;99574.92;;;31.86;40.80
50310;BME280;36207;51.850;21.698;2022-08-19T12:58:11;99575.23;;;31.86;40.65
50310;BME280;36207;51.850;21.698;2022-08-19T13:00:39;99573.84;;;31.85;40.70
50310;BME280;36207;51.850;21.698;2022-08-19T13:03:05;99571.77;;;31.84;40.71
50310;BME280;36207;51.850;21.698;2022-08-19T13:05:33;99569.33;;;31.84;40.42
50310;BME280;36207;51.850;21.698;2022-08-19T13:08:00;99569.66;;;31.81;39.15
50310;BME280;36207;51.850;21.698;2022-08-19T13:10:32;99566.83;;;31.75;38.66